Time;durP1;ratioP1;P1;durP2;ratioP2;P2;SDS_P1;SDS_P2;PMS_P1;PMS_P2;Temp;Humidity;BMP_temperature;BMP_pressure;BME280_temperature;BME280_humidity;BME280_pressure;Samples;Min_cycle;Max_cycle;Signal;HPM_P1;HPM_P2
2022/06/03 00:02:14;;;;;;;2.35;1.00;;;15.60;61.00;;;;;;5072179;28;20040;-75
2022/06/03 00:05:08;;;;;;;3.10;1.48;;;15.60;60.70;;;;;;5078087;28;20511;-74
2022/06/03 00:07:53;;;;;;;2.53;1.30;;;15.60;60.20;;;;;;5058427;28;20059;-78
2022/06/03 00:10:47;;;;;;;1.35;0.75;;;15.60;60.30;;;;;;5075597;28;20093;-76
2022/06/03 00:13:34;;;;;;;2.05;1.02;;;15.60;60.40;;;;;;5057087;28;20139;-74
2022/06/03 00:16:10;;;;;;;1.30;0.68;;;15.60;60.10;;;;;;5079596;28;20515;-76
2022/06/03 00:19:10;;;;;;;2.95;1.00;;;15.60;60.20;;;;;;5079810;28;20067;-73
2022/06/03 00:22:00;;;;;;;2.25;1.02;;;15.60;59.90;;;;;;5053050;28;20101;-75
2022/06/03 00:24:47;;;;;;;2.00;1.05;;;15.60;60.10;;;;;;5079136;28;20063;-75
2022/06/03 00:27:29;;;;;;;2.40;0.93;;;15.60;60.40;;;;;;5068318;28;20040;-74
2022/06/03 00:30:05;;;;;;;2.42;1.00;;;15.60;60.30;;;;;;5051203;28;20079;-73
2022/06/03 00:33:12;;;;;;;4.45;1.08;;;15.60;60.20;;;;;;5069617;28;20057;-73
2022/06/03 00:35:46;;;;;;;2.92;1.00;;;15.60;60.10;;;;;;4984011;28;20050;-75
2022/06/03 00:38:34;;;;;;;2.85;0.73;;;15.60;60.00;;;;;;5043431;28;20070;-73
2022/06/03 00:41:22;;;;;;;2.67;0.75;;;15.60;59.90;;;;;;5069259;28;20047;-74
2022/06/03 00:44:34;;;;;;;2.25;0.90;;;15.70;59.80;;;;;;5074224;28;20419;-75
2022/06/03 00:47:16;;;;;;;2.38;0.85;;;15.60;59.60;;;;;;5007549;28;20579;-75
2022/06/03 00:50:10;;;;;;;1.67;0.70;;;15.60;59.80;;;;;;5049061;28;20055;-74
2022/06/03 00:53:04;;;;;;;3.08;0.88;;;15.60;59.90;;;;;;5073991;28;20075;-76
2022/06/03 00:56:00;;;;;;;3.03;1.00;;;15.50;60.20;;;;;;5075903;28;20561;-72
2022/06/03 00:58:45;;;;;;;1.33;0.70;;;15.50;60.30;;;;;;5072971;28;20052;-73
2022/06/03 01:01:16;;;;;;;1.40;0.70;;;15.50;60.40;;;;;;5073262;28;20044;-74
2022/06/03 01:04:16;;;;;;;2.00;0.70;;;15.50;60.30;;;;;;5055069;28;20509;-75
2022/06/03 01:06:55;;;;;;;2.50;1.05;;;15.50;60.30;;;;;;5071546;28;20514;-74
2022/06/03 01:09:35;;;;;;;2.50;0.80;;;15.50;60.20;;;;;;5067474;28;20049;-77
2022/06/03 01:12:08;;;;;;;;;;;15.40;60.50;;;;;;5071799;28;20048;-75
2022/06/03 01:14:58;;;;;;;1.95;0.90;;;15.40;60.40;;;;;;5073408;28;20018;-75
2022/06/03 01:17:35;;;;;;;1.27;0.73;;;15.40;60.80;;;;;;5071552;28;20037;-76
2022/06/03 01:20:14;;;;;;;1.70;0.80;;;15.30;61.00;;;;;;5052994;28;20048;-74
2022/06/03 01:23:10;;;;;;;2.85;0.90;;;15.30;61.10;;;;;;5065926;28;20049;-74
2022/06/03 01:25:56;;;;;;;1.88;0.90;;;15.30;61.30;;;;;;5057518;28;20059;-74
2022/06/03 01:28:53;;;;;;;2.28;0.82;;;15.20;61.20;;;;;;5074655;28;20044;-73
2022/06/03 01:32:09;;;;;;;1.02;0.75;;;15.20;61.50;;;;;;5057639;28;20135;-75
2022/06/03 01:34:51;;;;;;;2.38;1.00;;;15.20;61.20;;;;;;5008721;28;20416;-78
2022/06/03 01:37:26;;;;;;;3.53;1.15;;;15.10;61.70;;;;;;5064353;28;20439;-76
2022/06/03 01:40:12;;;;;;;2.22;0.82;;;15.10;62.40;;;;;;5069130;28;20045;-74
2022/06/03 01:43:16;;;;;;;1.83;0.82;;;15.00;62.70;;;;;;5068322;28;20323;-75
2022/06/03 01:46:08;;;;;;;1.33;0.77;;;14.90;63.10;;;;;;5068816;28;20037;-73
2022/06/03 01:49:09;;;;;;;2.13;0.80;;;14.80;63.40;;;;;;5066779;28;20436;-74
2022/06/03 01:52:15;;;;;;;1.80;0.90;;;14.80;63.50;;;;;;5051262;28;20067;-74
2022/06/03 01:55:12;;;;;;;1.83;0.98;;;14.90;63.30;;;;;;5050965;28;20526;-74
2022/06/03 01:58:12;;;;;;;3.20;0.95;;;14.90;63.20;;;;;;5076783;28;20089;-74
2022/06/03 02:00:41;;;;;;;;;;;14.90;63.20;;;;;;5073097;28;20054;-75
2022/06/03 02:03:28;;;;;;;1.83;0.90;;;14.90;63.10;;;;;;5077587;28;19924;-73
2022/06/03 02:06:23;;;;;;;1.77;0.90;;;14.90;63.10;;;;;;5045222;28;20606;-72
2022/06/03 02:09:35;;;;;;;1.75;1.00;;;14.90;63.10;;;;;;5061872;28;20052;-73
2022/06/03 02:12:30;;;;;;;1.95;1.10;;;14.90;63.30;;;;;;4985890;28;20058;-74
2022/06/03 02:15:32;;;;;;;2.75;1.00;;;14.90;63.30;;;;;;4990823;28;20052;-70
2022/06/03 02:18:46;;;;;;;2.00;0.88;;;14.80;63.40;;;;;;5046594;28;20070;-71
2022/06/03 02:21:52;;;;;;;1.58;0.90;;;14.80;63.40;;;;;;5002994;28;20143;-70
2022/06/03 02:24:42;;;;;;;1.52;0.80;;;14.80;63.70;;;;;;5067569;28;20052;-69
2022/06/03 02:27:59;;;;;;;1.77;0.90;;;14.70;63.70;;;;;;5068166;28;20121;-74
2022/06/03 02:31:00;;;;;;;2.08;1.15;;;14.70;63.90;;;;;;5018998;28;20057;-67
2022/06/03 02:33:51;;;;;;;2.38;1.13;;;14.60;64.10;;;;;;5067522;28;20504;-68
2022/06/03 02:37:03;;;;;;;2.65;0.82;;;14.60;64.00;;;;;;5067669;28;20051;-69
2022/06/03 02:39:49;;;;;;;3.08;1.00;;;14.60;64.20;;;;;;5067988;28;20051;-69
2022/06/03 02:42:56;;;;;;;3.70;1.20;;;14.60;64.40;;;;;;5067167;28;20164;-69
2022/06/03 02:46:07;;;;;;;4.80;1.33;;;14.60;64.50;;;;;;5049952;28;20048;-68
2022/06/03 02:49:04;;;;;;;1.73;0.90;;;14.50;64.70;;;;;;4979848;28;20102;-68
2022/06/03 02:51:50;;;;;;;2.50;0.90;;;14.50;64.80;;;;;;5056774;28;20505;-70
2022/06/03 02:54:36;;;;;;;2.55;1.20;;;14.40;65.00;;;;;;5059431;28;20051;-69
2022/06/03 02:57:30;;;;;;;1.50;1.02;;;14.40;65.10;;;;;;5057097;28;20669;-68
2022/06/03 03:00:16;;;;;;;2.55;1.10;;;14.30;65.20;;;;;;5058885;28;20040;-68
2022/06/03 03:03:09;;;;;;;3.38;1.50;;;14.30;65.40;;;;;;5058974;28;20106;-69
2022/06/03 03:06:02;;;;;;;2.35;1.00;;;14.30;65.10;;;;;;5057344;28;20044;-68
2022/06/03 03:08:58;;;;;;;2.55;1.05;;;14.30;65.00;;;;;;5057868;28;20523;-68
2022/06/03 03:12:10;;;;;;;2.83;0.65;;;14.40;64.90;;;;;;5057418;28;20546;-70
2022/06/03 03:15:03;;;;;;;1.98;0.98;;;14.30;64.80;;;;;;5055580;28;20053;-68
2022/06/03 03:18:04;;;;;;;2.65;1.15;;;14.40;64.90;;;;;;5055917;28;20127;-69
2022/06/03 03:21:07;;;;;;;1.67;0.98;;;14.30;65.20;;;;;;5021031;28;20574;-69
2022/06/03 03:24:13;;;;;;;3.90;1.25;;;14.30;65.40;;;;;;5054204;28;20124;-68
2022/06/03 03:26:53;;;;;;;3.92;1.30;;;14.20;65.70;;;;;;5055584;28;20099;-68
2022/06/03 03:30:08;;;;;;;2.60;1.08;;;14.20;65.90;;;;;;5052518;28;20045;-69
2022/06/03 03:32:50;;;;;;;2.85;1.20;;;14.10;66.20;;;;;;4984887;28;20042;-69
2022/06/03 03:35:38;;;;;;;1.63;0.77;;;14.10;66.50;;;;;;5052666;28;20108;-70
2022/06/03 03:38:41;;;;;;;2.00;1.20;;;14.00;66.60;;;;;;5049655;28;20404;-69
2022/06/03 03:41:36;;;;;;;2.75;1.00;;;14.00;66.70;;;;;;5055446;28;20052;-67
2022/06/03 03:44:57;;;;;;;2.40;0.88;;;14.00;66.70;;;;;;5064643;28;20400;-68
2022/06/03 03:48:06;;;;;;;2.88;1.10;;;13.90;66.90;;;;;;5073714;28;20037;-68
2022/06/03 03:51:09;;;;;;;1.30;0.90;;;13.90;66.80;;;;;;5078133;28;20136;-69
2022/06/03 03:54:21;;;;;;;1.55;0.90;;;14.00;66.60;;;;;;5068076;28;20135;-68
2022/06/03 03:57:37;;;;;;;2.72;1.20;;;14.10;66.40;;;;;;5074908;28;20495;-68
2022/06/03 04:00:10;;;;;;;2.75;1.10;;;14.10;66.80;;;;;;5071781;28;20123;-69
2022/06/03 04:03:30;;;;;;;4.35;1.63;;;14.10;66.80;;;;;;5079116;28;20407;-67
2022/06/03 04:06:28;;;;;;;2.60;1.10;;;14.00;66.90;;;;;;5017634;28;20072;-68
2022/06/03 04:09:19;;;;;;;3.42;1.48;;;14.00;67.40;;;;;;5071674;28;20614;-69
2022/06/03 04:12:13;;;;;;;2.60;1.10;;;13.90;67.60;;;;;;5077867;28;20399;-68
2022/06/03 04:15:08;;;;;;;2.45;1.50;;;13.90;67.70;;;;;;5063857;28;20068;-68
2022/06/03 04:17:57;;;;;;;2.42;1.10;;;13.90;67.90;;;;;;5070821;28;20411;-69
2022/06/03 04:20:53;;;;;;;3.13;1.27;;;13.90;67.90;;;;;;5079335;28;20032;-69
2022/06/03 04:24:01;;;;;;;2.10;0.90;;;13.90;68.00;;;;;;5079697;28;20036;-69
2022/06/03 04:27:13;;;;;;;2.58;1.00;;;13.90;68.10;;;;;;5077321;28;20064;-68
2022/06/03 04:30:26;;;;;;;2.08;0.80;;;13.90;68.30;;;;;;5002024;28;20128;-67
2022/06/03 04:33:29;;;;;;;3.00;1.08;;;13.90;68.40;;;;;;4957326;28;20053;-69
2022/06/03 04:36:38;;;;;;;2.28;1.05;;;13.80;68.50;;;;;;5070189;28;20411;-70
2022/06/03 04:39:50;;;;;;;4.17;1.30;;;13.90;68.70;;;;;;5071935;28;20056;-69
2022/06/03 04:42:52;;;;;;;2.00;1.17;;;13.90;68.90;;;;;;5077733;28;20136;-68
2022/06/03 04:45:48;;;;;;;2.85;1.25;;;13.90;68.70;;;;;;5077362;28;20145;-68
2022/06/03 04:49:04;;;;;;;2.45;1.20;;;14.00;68.40;;;;;;5079688;28;20048;-69
2022/06/03 04:52:07;;;;;;;5.43;1.65;;;14.10;67.90;;;;;;5071700;28;20492;-69
2022/06/03 04:55:12;;;;;;;3.05;1.00;;;14.20;67.40;;;;;;5043659;28;20669;-68
2022/06/03 04:58:25;;;;;;;2.58;1.08;;;14.20;67.10;;;;;;5075001;28;20467;-69
2022/06/03 05:01:25;;;;;;;2.05;1.00;;;14.30;66.80;;;;;;5075002;28;20068;-69
2022/06/03 05:04:25;;;;;;;2.58;1.13;;;14.40;66.80;;;;;;5079422;28;20050;-68
2022/06/03 05:07:40;;;;;;;2.85;1.10;;;14.40;66.60;;;;;;5077254;28;20044;-68
2022/06/03 05:10:41;;;;;;;3.70;1.10;;;14.40;66.60;;;;;;5080410;28;20673;-69
2022/06/03 05:13:47;;;;;;;2.17;1.05;;;14.50;66.50;;;;;;5076735;28;20532;-70
2022/06/03 05:16:55;;;;;;;2.85;1.15;;;14.50;66.60;;;;;;5075948;28;20080;-69
2022/06/03 05:20:01;;;;;;;2.70;0.90;;;14.60;66.30;;;;;;5065607;28;20052;-69
2022/06/03 05:22:57;;;;;;;1.60;0.80;;;14.60;66.50;;;;;;5076162;28;20071;-69
2022/06/03 05:25:43;;;;;;;1.83;1.10;;;14.60;66.20;;;;;;5078738;28;20040;-68
2022/06/03 05:28:46;;;;;;;2.20;0.90;;;14.70;66.10;;;;;;5075184;28;20040;-68
2022/06/03 05:32:01;;;;;;;4.68;0.90;;;14.70;66.30;;;;;;5075973;28;20032;-69
2022/06/03 05:34:55;;;;;;;2.92;1.02;;;14.80;66.00;;;;;;5067971;28;20139;-69
2022/06/03 05:37:54;;;;;;;1.48;1.10;;;14.90;65.90;;;;;;5079404;28;20036;-68
2022/06/03 05:40:36;;;;;;;3.47;1.07;;;15.00;66.00;;;;;;5073630;28;20102;-67
2022/06/03 05:43:30;;;;;;;4.70;1.27;;;15.10;66.00;;;;;;5038973;28;1151632;-67
2022/06/03 05:46:16;;;;;;;2.28;0.80;;;15.10;65.80;;;;;;5076851;28;20093;-69
2022/06/03 05:49:08;;;;;;;2.05;1.08;;;15.10;65.90;;;;;;5080311;28;20490;-68
2022/06/03 05:51:59;;;;;;;2.78;1.20;;;15.20;65.90;;;;;;5055853;28;20174;-69
2022/06/03 05:54:41;;;;;;;3.00;1.33;;;15.30;65.70;;;;;;5077612;28;20048;-68
2022/06/03 05:57:19;;;;;;;4.93;1.65;;;15.40;65.60;;;;;;5076548;28;20259;-69
2022/06/03 06:00:10;;;;;;;4.90;1.48;;;15.40;65.50;;;;;;5074695;28;20590;-68
2022/06/03 06:02:42;;;;;;;3.63;1.70;;;15.40;65.20;;;;;;5075598;28;20052;-67
2022/06/03 06:05:32;;;;;;;5.03;2.38;;;15.50;65.10;;;;;;5078609;28;20048;-68
2022/06/03 06:08:10;;;;;;;3.05;1.30;;;15.60;64.90;;;;;;5080592;28;20051;-69
2022/06/03 06:10:50;;;;;;;5.28;1.40;;;15.70;64.80;;;;;;5079897;28;20043;-69
2022/06/03 06:13:39;;;;;;;3.63;1.27;;;15.70;64.70;;;;;;5077924;28;20487;-69
2022/06/03 06:16:13;;;;;;;3.55;1.38;;;15.70;64.80;;;;;;5080180;28;20555;-70
2022/06/03 06:18:49;;;;;;;5.00;1.15;;;15.80;64.40;;;;;;5079321;28;20051;-70
2022/06/03 06:21:36;;;;;;;4.55;1.10;;;15.90;64.50;;;;;;5078441;28;20036;-68
2022/06/03 06:24:13;;;;;;;2.92;1.20;;;16.00;64.40;;;;;;5080077;28;20059;-67
2022/06/03 06:27:20;;;;;;;3.38;1.33;;;16.00;64.30;;;;;;5075196;28;20099;-68
2022/06/03 06:30:21;;;;;;;2.97;1.10;;;16.10;64.50;;;;;;5067302;28;20510;-67
2022/06/03 06:33:24;;;;;;;2.03;0.88;;;16.20;64.10;;;;;;5079491;28;20160;-68
2022/06/03 06:36:24;;;;;;;1.77;1.00;;;16.30;63.60;;;;;;5079750;28;20419;-68
2022/06/03 06:39:03;;;;;;;3.08;1.20;;;16.40;63.60;;;;;;5077467;28;20050;-69
2022/06/03 06:41:41;;;;;;;1.90;0.85;;;16.50;63.40;;;;;;5079229;28;20044;-68
2022/06/03 06:44:15;;;;;;;2.70;1.17;;;16.60;63.10;;;;;;5078575;28;20055;-69
2022/06/03 06:46:57;;;;;;;1.70;1.05;;;16.70;62.90;;;;;;5078217;28;20055;-68
2022/06/03 06:49:33;;;;;;;2.60;1.40;;;16.70;62.60;;;;;;5063417;28;20487;-69
2022/06/03 06:52:26;;;;;;;2.60;1.00;;;16.80;62.30;;;;;;5078850;28;20385;-69
2022/06/03 06:55:02;;;;;;;3.72;1.33;;;16.90;62.70;;;;;;5076372;28;20130;-68
2022/06/03 06:57:33;;;;;;;2.15;1.08;;;17.00;62.20;;;;;;5060967;28;20064;-68
2022/06/03 07:00:08;;;;;;;2.28;0.90;;;17.10;62.20;;;;;;5078397;28;20044;-69
2022/06/03 07:02:41;;;;;;;1.98;0.95;;;17.20;62.00;;;;;;5074134;28;20059;-69
2022/06/03 07:05:16;;;;;;;1.83;0.90;;;17.30;62.30;;;;;;5075684;28;20271;-69
2022/06/03 07:07:51;;;;;;;4.63;0.93;;;17.30;61.40;;;;;;5061606;28;20139;-68
2022/06/03 07:10:24;;;;;;;2.28;0.90;;;17.40;61.50;;;;;;5077141;28;20048;-68
2022/06/03 07:13:00;;;;;;;4.07;1.20;;;17.60;61.60;;;;;;5073004;28;20040;-68
2022/06/03 07:15:40;;;;;;;1.85;0.80;;;17.70;61.10;;;;;;5061645;28;20481;-69
2022/06/03 07:21:09;;;;;;;4.85;1.10;;;17.80;60.80;;;;;;5079145;28;20551;-67
2022/06/03 07:23:45;;;;;;;1.48;0.80;;;17.90;60.80;;;;;;5079084;28;20075;-69
2022/06/03 07:26:19;;;;;;;1.52;0.68;;;18.10;61.40;;;;;;5079443;28;20070;-68
2022/06/03 07:28:52;;;;;;;1.75;0.90;;;18.10;60.90;;;;;;5078629;28;20044;-69
2022/06/03 07:31:24;;;;;;;3.72;0.73;;;18.10;60.80;;;;;;5077180;28;20040;-68
2022/06/03 07:33:58;;;;;;;1.88;0.73;;;18.20;60.60;;;;;;5079715;28;20047;-68
2022/06/03 07:36:34;;;;;;;1.65;0.68;;;18.20;60.80;;;;;;5061883;28;20052;-68
2022/06/03 07:39:19;;;;;;;1.88;0.80;;;18.20;60.40;;;;;;5078091;28;20044;-68
2022/06/03 07:41:57;;;;;;;1.02;0.93;;;18.30;60.20;;;;;;5078118;28;20103;-68
2022/06/03 07:44:27;;;;;;;0.70;0.60;;;18.40;60.90;;;;;;5077396;28;20049;-68
2022/06/03 07:47:01;;;;;;;2.15;0.80;;;18.50;60.60;;;;;;5079289;28;20044;-70
2022/06/03 07:49:31;;;;;;;2.92;0.85;;;18.60;60.70;;;;;;5062679;28;20044;-67
2022/06/03 07:52:04;;;;;;;1.10;0.68;;;18.60;60.10;;;;;;5078819;28;20040;-68
2022/06/03 07:54:34;;;;;;;2.78;0.73;;;18.70;60.60;;;;;;5078542;28;20131;-69
2022/06/03 07:57:03;;;;;;;2.80;0.75;;;18.80;59.90;;;;;;5078303;28;20648;-69
2022/06/03 07:59:33;;;;;;;2.03;0.90;;;18.90;59.80;;;;;;5077817;28;20534;-68
2022/06/03 08:02:04;;;;;;;2.33;0.82;;;19.00;60.10;;;;;;5071292;28;20047;-67
2022/06/03 08:04:37;;;;;;;2.38;0.68;;;19.00;60.00;;;;;;5063878;28;20049;-68
2022/06/03 08:12:39;;;;;;;1.70;1.00;;;19.20;59.30;;;;;;5068603;28;20083;-69
2022/06/03 08:15:18;;;;;;;1.45;0.90;;;19.30;59.20;;;;;;5065594;28;20488;-68
2022/06/03 08:17:49;;;;;;;1.85;0.90;;;19.40;59.50;;;;;;5061073;28;20054;-69
2022/06/03 08:20:19;;;;;;;1.05;0.80;;;19.50;59.10;;;;;;5065278;28;20110;-69
2022/06/03 08:22:46;;;;;;;1.08;0.90;;;19.60;59.20;;;;;;5068172;28;20046;-69
2022/06/03 08:25:16;;;;;;;1.50;0.70;;;19.70;59.00;;;;;;5066878;28;20090;-69
2022/06/03 08:27:44;;;;;;;1.65;0.80;;;19.80;59.30;;;;;;5062205;28;20051;-69
2022/06/03 08:30:14;;;;;;;4.10;1.40;;;20.00;59.30;;;;;;5065374;28;20143;-68
2022/06/03 08:32:47;;;;;;;7.25;1.98;;;20.10;58.80;;;;;;5070019;28;20047;-69
2022/06/03 08:35:19;;;;;;;7.53;1.08;;;20.20;58.10;;;;;;5063962;28;20055;-70
2022/06/03 08:37:50;;;;;;;3.05;1.23;;;20.40;57.80;;;;;;5063468;28;20052;-70
2022/06/03 08:40:28;;;;;;;2.47;1.15;;;20.50;58.10;;;;;;5068833;28;20048;-69
2022/06/03 08:43:02;;;;;;;1.50;0.90;;;20.60;56.70;;;;;;5068354;28;20124;-69
2022/06/03 08:45:40;;;;;;;2.22;1.00;;;20.80;57.20;;;;;;5068465;28;20044;-69
2022/06/03 08:48:13;;;;;;;1.33;0.85;;;21.00;56.90;;;;;;5073549;28;20573;-69
2022/06/03 08:50:43;;;;;;;1.05;0.80;;;21.10;56.90;;;;;;5073219;28;20054;-69
2022/06/03 08:53:20;;;;;;;1.48;0.70;;;21.20;55.90;;;;;;5064080;28;20044;-69
2022/06/03 08:55:52;;;;;;;1.75;0.90;;;21.30;55.60;;;;;;5068169;28;20169;-68
2022/06/03 08:58:27;;;;;;;2.15;0.82;;;21.30;55.50;;;;;;5072630;28;20044;-69
2022/06/03 09:01:01;;;;;;;3.65;1.10;;;21.50;55.40;;;;;;5066506;28;20064;-69
2022/06/03 09:03:40;;;;;;;3.65;1.05;;;21.50;55.70;;;;;;5070771;28;20047;-67
2022/06/03 09:06:11;;;;;;;2.10;0.98;;;21.60;54.90;;;;;;5069016;28;20047;-69
2022/06/03 09:08:43;;;;;;;1.40;0.85;;;21.70;52.90;;;;;;5069819;28;20040;-68
2022/06/03 09:11:20;;;;;;;2.33;1.25;;;21.80;52.70;;;;;;5064708;28;20441;-67
2022/06/03 09:13:54;;;;;;;1.00;0.73;;;21.90;53.10;;;;;;5069236;28;20040;-67
2022/06/03 09:16:22;;;;;;;1.73;0.80;;;22.10;53.00;;;;;;5072448;28;20497;-68
2022/06/03 09:18:56;;;;;;;4.03;0.97;;;22.10;53.60;;;;;;5075276;28;20048;-68
2022/06/03 09:21:27;;;;;;;1.13;0.90;;;22.20;51.80;;;;;;5070771;28;20514;-68
2022/06/03 09:23:59;;;;;;;2.35;1.25;;;22.30;52.40;;;;;;5070317;28;20368;-68
2022/06/03 09:26:29;;;;;;;3.50;1.80;;;22.40;52.30;;;;;;5068749;28;20040;-69
2022/06/03 09:28:59;;;;;;;5.20;2.08;;;22.50;51.50;;;;;;5070653;28;20044;-68
2022/06/03 09:31:26;;;;;;;3.45;1.52;;;22.50;51.10;;;;;;5068914;28;20103;-68
2022/06/03 09:33:57;;;;;;;4.60;2.03;;;22.60;50.50;;;;;;5067597;28;20077;-69
2022/06/03 09:36:25;;;;;;;7.13;2.45;;;22.60;51.40;;;;;;5070930;28;20044;-69
2022/06/03 09:38:57;;;;;;;5.07;1.83;;;22.70;51.20;;;;;;5072909;28;20136;-67
2022/06/03 09:41:29;;;;;;;3.38;1.80;;;22.80;50.50;;;;;;5072943;28;20629;-68
2022/06/03 09:43:57;;;;;;;4.88;1.80;;;22.80;50.90;;;;;;5070908;28;20092;-69
2022/06/03 09:46:28;;;;;;;3.40;1.63;;;22.80;50.10;;;;;;5070921;28;20041;-67
2022/06/03 09:48:58;;;;;;;5.35;1.88;;;22.90;50.10;;;;;;5074267;28;20354;-68
2022/06/03 09:54:09;;;;;;;4.07;1.75;;;22.90;51.00;;;;;;5065123;28;20055;-69
2022/06/03 09:56:39;;;;;;;6.03;2.33;;;23.00;50.70;;;;;;5075455;28;20450;-69
2022/06/03 09:59:06;;;;;;;;;;;23.10;50.10;;;;;;5079018;28;20636;-69
2022/06/03 10:01:34;;;;;;;5.88;3.00;;;23.10;50.10;;;;;;5065244;28;20015;-69
2022/06/03 10:04:06;;;;;;;5.45;2.63;;;23.20;49.70;;;;;;5067034;28;20067;-67
2022/06/03 10:06:47;;;;;;;8.13;3.92;;;23.10;49.40;;;;;;5069198;28;20055;-68
2022/06/03 10:15:37;;;;;;;10.63;5.38;;;23.30;49.70;;;;;;5065684;28;19959;-69
2022/06/03 10:17:35;;;;;;;10.82;4.85;;;23.40;50.20;;;;;;5067102;28;20163;-69
2022/06/03 10:20:06;;;;;;;9.52;4.30;;;23.50;50.80;;;;;;5065306;28;20040;-69
2022/06/03 10:22:33;;;;;;;6.97;3.20;;;23.60;50.20;;;;;;5067684;28;20466;-69
2022/06/03 10:25:00;;;;;;;7.55;2.80;;;23.60;49.10;;;;;;5064208;28;20048;-68
2022/06/03 10:27:28;;;;;;;6.03;2.88;;;23.60;48.90;;;;;;5068928;28;20083;-69
2022/06/03 10:29:59;;;;;;;6.18;2.65;;;23.60;48.80;;;;;;5066175;28;20044;-69
2022/06/03 10:32:27;;;;;;;7.82;3.38;;;23.60;49.10;;;;;;5071729;28;20036;-69
2022/06/03 10:35:04;;;;;;;7.10;3.13;;;23.70;49.90;;;;;;5067762;28;20397;-68
2022/06/03 10:37:34;;;;;;;7.25;3.08;;;23.80;49.70;;;;;;5063857;28;20053;-68
2022/06/03 10:40:01;;;;;;;5.60;3.03;;;23.90;49.40;;;;;;5067926;28;20519;-70
2022/06/03 10:42:29;;;;;;;7.15;3.25;;;24.00;49.90;;;;;;5069634;28;20041;-67
2022/06/03 10:44:59;;;;;;;6.40;3.15;;;24.10;49.60;;;;;;5073395;28;20063;-67
2022/06/03 10:47:34;;;;;;;5.43;2.83;;;24.10;49.20;;;;;;5069008;28;20048;-68
2022/06/03 10:50:04;;;;;;;8.35;5.05;;;24.20;48.40;;;;;;5072135;28;20040;-70
2022/06/03 11:01:10;;;;;;;7.65;2.22;;;24.20;48.80;;;;;;5065089;28;20033;-68
2022/06/03 11:03:42;;;;;;;5.75;2.95;;;24.10;48.40;;;;;;5065020;28;21429;-69
2022/06/03 11:06:12;;;;;;;6.55;3.10;;;24.10;49.10;;;;;;5065337;28;20093;-69
2022/06/03 11:08:57;;;;;;;4.75;2.67;;;24.20;49.70;;;;;;5067472;28;20049;-68
2022/06/03 11:11:34;;;;;;;4.13;2.03;;;24.20;50.10;;;;;;5066536;28;20068;-69
2022/06/03 11:14:27;;;;;;;4.18;2.05;;;24.30;49.20;;;;;;5067955;28;20098;-69
2022/06/03 11:17:04;;;;;;;5.97;2.08;;;24.30;48.90;;;;;;5069318;28;20040;-68
2022/06/03 11:19:33;;;;;;;6.30;2.22;;;24.30;49.10;;;;;;5071158;28;20103;-69
2022/06/03 11:22:28;;;;;;;7.05;1.95;;;24.40;49.50;;;;;;5067116;28;20119;-67
2022/06/03 11:25:11;;;;;;;3.90;2.08;;;24.50;50.40;;;;;;5041888;28;20108;-69
2022/06/03 11:27:51;;;;;;;4.55;2.33;;;24.40;49.20;;;;;;5065324;28;20394;-69
2022/06/03 11:30:22;;;;;;;3.70;1.60;;;24.40;50.00;;;;;;5061022;28;20048;-69
2022/06/03 11:32:54;;;;;;;3.97;1.90;;;24.40;49.20;;;;;;5067144;28;20488;-70
2022/06/03 11:35:27;;;;;;;5.30;1.80;;;24.30;49.00;;;;;;5063671;28;20139;-69
2022/06/03 11:37:57;;;;;;;3.08;1.55;;;24.30;48.80;;;;;;5068852;28;20095;-68
2022/06/03 11:40:31;;;;;;;2.72;1.60;;;24.30;49.20;;;;;;5069389;28;20036;-69
2022/06/03 11:43:05;;;;;;;4.20;2.03;;;24.40;50.40;;;;;;5066551;28;20044;-68
2022/06/03 11:45:40;;;;;;;3.30;1.65;;;24.60;51.00;;;;;;5069172;28;20492;-70
2022/06/03 11:48:16;;;;;;;2.65;1.60;;;24.60;49.00;;;;;;5069326;28;20424;-67
2022/06/03 11:50:43;;;;;;;3.08;1.50;;;24.60;49.40;;;;;;5070472;28;20726;-68
2022/06/03 11:53:10;;;;;;;6.03;1.92;;;24.60;50.00;;;;;;5066124;28;20076;-68
2022/06/03 11:55:39;;;;;;;3.70;1.60;;;24.50;49.30;;;;;;5067347;28;20056;-68
2022/06/03 11:58:09;;;;;;;;;;;24.50;49.10;;;;;;5064999;28;20109;-68
2022/06/03 12:00:42;;;;;;;4.38;1.70;;;24.50;49.30;;;;;;5053306;28;19928;-68
2022/06/03 12:03:31;;;;;;;6.25;2.08;;;24.50;49.20;;;;;;5069806;28;20040;-69
2022/06/03 12:06:01;;;;;;;;;;;24.60;49.40;;;;;;5060420;28;20052;-68
2022/06/03 12:08:39;;;;;;;2.38;1.40;;;24.50;49.70;;;;;;5064379;28;20022;-69
2022/06/03 12:13:14;;;;;;;2.25;1.38;;;24.60;50.00;;;;;;5066905;28;20577;-67
2022/06/03 12:14:19;;;;;;;3.72;1.40;;;24.60;49.70;;;;;;5077428;28;20044;-69
2022/06/03 12:16:58;;;;;;;2.25;1.50;;;24.50;49.70;;;;;;5076152;28;20396;-69
2022/06/03 12:19:43;;;;;;;5.32;2.13;;;24.50;50.40;;;;;;5074497;28;20042;-67
2022/06/03 12:22:36;;;;;;;3.70;2.00;;;24.50;50.50;;;;;;5079231;28;20037;-67
2022/06/03 12:25:27;;;;;;;3.08;1.92;;;24.60;50.60;;;;;;5073386;28;20044;-67
2022/06/03 12:27:57;;;;;;;2.25;1.50;;;24.50;49.70;;;;;;5073275;28;21238;-70
2022/06/03 12:30:35;;;;;;;5.28;1.48;;;24.50;49.60;;;;;;5072716;28;20407;-68
2022/06/03 12:33:08;;;;;;;3.20;1.58;;;24.50;50.00;;;;;;5067766;28;20427;-70
2022/06/03 12:36:07;;;;;;;3.97;2.17;;;24.60;50.60;;;;;;5061422;28;20045;-68
2022/06/03 12:39:13;;;;;;;4.18;2.60;;;24.70;49.90;;;;;;4995786;28;20140;-70
2022/06/03 12:42:05;;;;;;;3.67;1.65;;;24.80;50.70;;;;;;5068863;28;20119;-68
2022/06/03 12:44:40;;;;;;;2.75;1.55;;;24.70;49.40;;;;;;5073925;28;20059;-69
2022/06/03 12:47:44;;;;;;;2.63;1.60;;;24.70;49.40;;;;;;5078595;28;20423;-67
2022/06/03 12:50:30;;;;;;;4.05;1.60;;;24.70;50.30;;;;;;5066781;28;20044;-68
2022/06/03 12:53:03;;;;;;;4.38;1.40;;;24.70;48.80;;;;;;5068977;28;20087;-68
2022/06/03 12:55:36;;;;;;;3.28;1.45;;;24.70;49.70;;;;;;5071092;28;20054;-68
2022/06/03 12:58:05;;;;;;;3.60;1.48;;;24.70;49.90;;;;;;5069603;28;20049;-68
2022/06/03 13:00:36;;;;;;;7.82;3.58;;;24.70;49.90;;;;;;5046322;28;20510;-67
2022/06/03 13:03:05;;;;;;;6.70;3.58;;;24.80;50.50;;;;;;5069132;28;20071;-68
2022/06/03 13:05:39;;;;;;;5.10;3.00;;;24.80;50.60;;;;;;5070098;28;20458;-68
2022/06/03 13:08:10;;;;;;;3.83;2.53;;;24.80;50.50;;;;;;5070104;28;20113;-67
2022/06/03 13:10:59;;;;;;;4.00;2.20;;;24.80;50.20;;;;;;5072412;28;20058;-67
2022/06/03 13:13:41;;;;;;;3.08;1.92;;;24.80;50.20;;;;;;5073772;28;20150;-68
2022/06/03 13:16:49;;;;;;;2.83;1.65;;;24.80;50.40;;;;;;5068357;28;20498;-70
2022/06/03 13:19:45;;;;;;;2.40;1.67;;;24.80;50.00;;;;;;5075565;28;20054;-68
2022/06/03 13:22:40;;;;;;;3.35;1.40;;;24.80;50.60;;;;;;5067189;28;20347;-68
2022/06/03 13:25:37;;;;;;;2.65;1.52;;;24.90;50.90;;;;;;5056287;28;20067;-69
2022/06/03 13:28:33;;;;;;;3.58;1.75;;;25.00;51.20;;;;;;4983369;28;20042;-68
2022/06/03 13:31:22;;;;;;;2.53;1.33;;;24.90;51.80;;;;;;5067477;28;20048;-69
2022/06/03 13:34:19;;;;;;;2.58;1.42;;;25.00;50.20;;;;;;5066312;28;20143;-67
2022/06/03 13:36:57;;;;;;;3.58;1.60;;;24.90;50.50;;;;;;5062478;28;20052;-67
2022/06/03 13:40:07;;;;;;;2.05;1.40;;;24.90;50.80;;;;;;5069123;28;20048;-68
2022/06/03 13:43:01;;;;;;;3.35;1.33;;;25.00;51.40;;;;;;5044349;28;20072;-71
2022/06/03 13:45:51;;;;;;;4.30;1.77;;;25.10;51.40;;;;;;5074308;28;20131;-69
2022/06/03 13:48:25;;;;;;;3.35;1.75;;;25.10;51.20;;;;;;5069958;28;20044;-68
2022/06/03 13:50:53;;;;;;;2.25;1.25;;;25.10;51.50;;;;;;5073189;28;20072;-69
2022/06/03 13:53:30;;;;;;;2.83;1.80;;;25.10;51.40;;;;;;5067680;28;20094;-68
2022/06/03 13:56:04;;;;;;;3.05;1.45;;;25.10;51.10;;;;;;5077082;28;20071;-68
2022/06/03 13:58:35;;;;;;;2.78;1.40;;;25.10;51.00;;;;;;5079761;28;20507;-68
2022/06/03 14:01:07;;;;;;;2.30;1.42;;;25.20;51.00;;;;;;5061538;28;20441;-68
2022/06/03 14:03:39;;;;;;;2.15;1.45;;;25.20;50.70;;;;;;5067079;28;20584;-67
2022/06/03 14:06:14;;;;;;;3.15;1.52;;;25.10;50.50;;;;;;5068916;28;20047;-68
2022/06/03 14:08:44;;;;;;;4.32;1.65;;;25.10;51.00;;;;;;5070591;28;20044;-68
2022/06/03 14:11:16;;;;;;;2.55;1.40;;;25.20;50.90;;;;;;5068061;28;20074;-68
2022/06/03 14:13:50;;;;;;;2.78;1.55;;;25.20;51.30;;;;;;5076311;28;20047;-69
2022/06/03 14:16:22;;;;;;;2.20;1.50;;;25.20;51.50;;;;;;5078450;28;20142;-69
2022/06/03 14:18:53;;;;;;;2.92;1.70;;;25.10;50.30;;;;;;5080579;28;20044;-68
2022/06/03 14:21:29;;;;;;;2.13;1.48;;;25.20;51.30;;;;;;5080239;28;20044;-68
2022/06/03 14:24:00;;;;;;;3.90;1.33;;;25.20;51.20;;;;;;5072039;28;20435;-70
2022/06/03 14:26:46;;;;;;;2.88;1.73;;;25.10;51.00;;;;;;5054905;28;20083;-69
2022/06/03 14:29:21;;;;;;;2.22;1.40;;;25.10;50.90;;;;;;5068432;28;20378;-69
2022/06/03 14:31:54;;;;;;;2.78;1.52;;;25.10;51.30;;;;;;5064187;28;20048;-69
2022/06/03 14:34:25;;;;;;;3.20;1.40;;;25.10;51.60;;;;;;5050099;28;20568;-68
2022/06/03 14:36:56;;;;;;;2.30;1.40;;;25.10;51.80;;;;;;5070063;28;20491;-68
2022/06/03 14:39:26;;;;;;;3.45;1.77;;;25.00;51.30;;;;;;5078813;28;20419;-68
2022/06/03 14:41:56;;;;;;;2.67;1.15;;;25.00;51.40;;;;;;5073871;28;20492;-68